Main page
METAR-TAF:

METAR-TAF

Airports :

Williamsport Regional Airport

Williamsport, Pennsylvania, United States

latitude: 41-14-30N, longitude: 076-55-15W, elevation: 528 ft

Current weather observation

The report was made 34 minutes ago, at 20:54 UTC
Wind 12 mph from the North with gusts up to 20 mph
Temperature 52°F
Humidity 35%
Pressure 29.79 in. Hg
Visibility: 10 miles
Few clouds at a height of 6000 ft

METAR: KIPT 012054Z 35010G17KT 10SM FEW060 11/M04 A2979 RMK AO2 SLP091 T01061044 56008

Time: 17:28 (21:28 UTC)

Forecast

The report was made 3 hours and 39 minutes ago, at 17:49 UTC
Forecast valid from 01 at 18 UTC to 02 at 18 UTC
Wind 9 mph from the North
Visibility: 6 miles
Overcast at a height of 4000 ft
showers in vicinity
From 02 at 0000 UTC
Wind 8 mph from the Northwest
Visibility: 6 miles
Scattered clouds at a height of 25000 ft

TAF: KIPT 011749Z 0118/0218 35008KT P6SM VCSH OVC040 FM020000 31007KT P6SM SCT250

Weather observations and forecasts of more than 4000 airports (METAR and TAF reports).

The available stations are represented by yellow and red dots on the map.

Hover mouse over dot to see the name of the station.

Then click to see weather observations and forecasts.

To change the map : click on the green buttons with a black cross to zoom in, on the green button with a dash to zoom out, or on the green arrows for adjacent maps.


METAR-TAF: